Time;durP1;ratioP1;P1;durP2;ratioP2;P2;SDS_P1;SDS_P2;PMS_P1;PMS_P2;Temp;Humidity;BMP_temperature;BMP_pressure;BME280_temperature;BME280_humidity;BME280_pressure;Samples;Min_cycle;Max_cycle;Signal;HPM_P1;HPM_P2
2023/03/22 00:01:29;;;;;;;39.58;21.08;;;;;;;11.02;76.38;99341.06;3166412;28;20440;-70
2023/03/22 00:03:01;;;;;;;42.97;21.65;;;;;;;11.03;76.37;99331.47;3165945;28;20476;-70
2023/03/22 00:04:33;;;;;;;44.10;22.25;;;;;;;11.03;76.53;99331.47;3166058;27;20138;-71
2023/03/22 00:06:06;;;;;;;42.53;21.83;;;;;;;11.01;76.71;99334.16;3166160;28;20746;-70
2023/03/22 00:07:39;;;;;;;47.22;23.65;;;;;;;11.00;76.81;99336.84;3165912;28;20502;-70
2023/03/22 00:09:13;;;;;;;44.97;23.00;;;;;;;10.98;76.51;99331.72;3166062;28;20079;-70
2023/03/22 00:10:47;;;;;;;43.22;22.35;;;;;;;11.00;76.68;99342.06;3165789;28;20054;-70
2023/03/22 00:12:18;;;;;;;57.45;22.77;;;;;;;10.99;76.61;99346.44;3165984;28;20083;-70
2023/03/22 00:13:51;;;;;;;48.65;23.20;;;;;;;10.99;77.02;99343.81;3166026;28;20073;-70
2023/03/22 00:15:23;;;;;;;48.85;23.73;;;;;;;10.99;76.63;99345.59;3166243;28;20051;-71
2023/03/22 00:16:55;;;;;;;46.83;22.38;;;;;;;10.92;76.63;99330.31;3165433;28;20124;-72
2023/03/22 00:18:27;;;;;;;49.80;23.25;;;;;;;10.91;77.05;99323.41;3165451;28;20047;-71
2023/03/22 00:19:59;;;;;;;46.08;22.23;;;;;;;10.87;77.03;99315.84;3165764;28;20516;-70
2023/03/22 00:21:31;;;;;;;50.15;23.50;;;;;;;11.01;76.80;99342.00;3165258;28;20051;-71
2023/03/22 00:23:03;;;;;;;49.03;22.95;;;;;;;11.02;76.60;99338.44;3166200;28;20047;-71
2023/03/22 00:24:37;;;;;;;45.53;23.30;;;;;;;10.95;76.52;99326.69;3166056;28;20051;-72
2023/03/22 00:26:09;;;;;;;47.40;22.38;;;;;;;11.00;76.48;99337.69;3165566;28;20055;-71
2023/03/22 00:27:41;;;;;;;56.63;23.48;;;;;;;10.59;76.85;99262.66;3165468;28;20066;-70
2023/03/22 00:29:13;;;;;;;49.70;22.90;;;;;;;10.98;76.60;99325.69;3165961;28;20479;-72
2023/03/22 00:30:51;;;;;;;52.45;23.13;;;;;;;10.98;76.93;99318.72;3165868;28;20056;-69
2023/03/22 00:32:23;;;;;;;49.30;22.17;;;;;;;10.91;76.65;99306.91;3165101;28;20064;-69
2023/03/22 00:33:55;;;;;;;51.72;24.55;;;;;;;11.00;77.02;99326.41;3165817;28;20162;-71
2023/03/22 00:35:26;;;;;;;52.83;24.00;;;;;;;10.98;77.13;99330.91;3154454;28;20088;-70
2023/03/22 00:36:58;;;;;;;53.05;24.70;;;;;;;10.92;77.13;99324.25;3165443;28;20436;-71
2023/03/22 00:38:35;;;;;;;56.05;23.58;;;;;;;10.96;77.02;99327.53;3165572;28;20048;-69
2023/03/22 00:40:12;;;;;;;48.75;22.77;;;;;;;10.81;77.14;99310.97;3165302;28;20055;-71
2023/03/22 00:41:44;;;;;;;57.17;23.55;;;;;;;10.80;77.09;99310.13;3165703;28;20120;-69
2023/03/22 00:43:15;;;;;;;57.78;24.40;;;;;;;10.88;77.24;99317.50;3165614;28;20052;-70
2023/03/22 00:44:47;;;;;;;48.03;22.13;;;;;;;10.95;77.33;99333.66;3165756;28;20590;-70
2023/03/22 00:46:21;;;;;;;48.33;22.88;;;;;;;10.96;77.18;99336.19;3164732;28;20044;-69
2023/03/22 00:47:51;;;;;;;47.67;22.35;;;;;;;10.96;77.20;99330.97;3165104;28;20054;-71
2023/03/22 00:49:24;;;;;;;45.35;21.88;;;;;;;10.95;77.59;99328.47;3165572;28;20097;-71
2023/03/22 00:50:55;;;;;;;48.63;21.05;;;;;;;10.94;77.63;99327.59;3169319;28;20117;-72
2023/03/22 00:52:27;;;;;;;43.42;21.10;;;;;;;10.91;77.25;99322.56;3170255;28;20096;-71
2023/03/22 00:53:59;;;;;;;43.42;20.60;;;;;;;10.90;77.32;99326.09;3170553;28;20044;-73
2023/03/22 00:55:33;;;;;;;43.83;20.20;;;;;;;10.87;77.32;99327.09;3169990;28;20093;-72
2023/03/22 00:57:04;;;;;;;48.47;20.38;;;;;;;10.80;77.75;99319.72;3171049;28;20070;-72
2023/03/22 00:58:35;;;;;;;42.22;21.42;;;;;;;10.84;77.38;99329.88;3170749;28;20050;-71
2023/03/22 01:00:12;;;;;;;53.30;21.80;;;;;;;10.83;77.63;99322.16;3170520;28;20119;-71
2023/03/22 01:01:44;;;;;;;43.72;20.60;;;;;;;10.78;77.86;99326.75;3170087;28;20603;-70
2023/03/22 01:03:14;;;;;;;50.42;21.17;;;;;;;10.71;77.62;99331.47;3158100;28;20048;-70
2023/03/22 01:04:47;;;;;;;42.17;19.45;;;;;;;10.64;77.79;99322.28;3170822;28;20192;-71
2023/03/22 01:06:17;;;;;;;44.08;21.63;;;;;;;10.62;77.69;99324.13;3170374;28;20051;-70
2023/03/22 01:07:50;;;;;;;39.28;20.60;;;;;;;10.50;77.93;99307.41;3170420;28;20046;-70
2023/03/22 01:09:22;;;;;;;40.25;20.92;;;;;;;10.49;78.25;99305.69;3169859;28;20075;-70
2023/03/22 01:10:55;;;;;;;53.95;22.50;;;;;;;10.51;78.01;99316.88;3170754;28;20047;-69
2023/03/22 01:12:27;;;;;;;44.72;19.95;;;;;;;10.50;77.93;99319.53;3168717;28;20581;-70
2023/03/22 01:14:00;;;;;;;45.10;21.67;;;;;;;10.51;78.10;99313.44;3165191;28;20055;-70
2023/03/22 01:15:32;;;;;;;48.45;19.65;;;;;;;10.51;78.18;99309.06;3165357;28;20047;-70
2023/03/22 01:17:06;;;;;;;42.55;19.98;;;;;;;10.51;77.85;99316.88;3164692;28;20047;-70
2023/03/22 01:18:37;;;;;;;;;;;;;;;10.45;77.96;99318.03;3165631;27;20581;-70
2023/03/22 01:20:10;;;;;;;42.35;19.65;;;;;;;10.42;77.79;99319.97;3165250;28;19977;-70
2023/03/22 01:21:42;;;;;;;41.08;20.30;;;;;;;10.39;77.69;99320.97;3165088;28;20048;-70
2023/03/22 01:23:14;;;;;;;43.85;20.30;;;;;;;9.44;77.61;99180.16;3160500;28;20116;-72
2023/03/22 01:24:46;;;;;;;39.53;19.55;;;;;;;10.35;77.60;99321.19;3156477;28;20507;-73
2023/03/22 01:26:20;;;;;;;38.05;18.98;;;;;;;10.32;77.64;99321.34;3165221;28;20055;-72
2023/03/22 01:27:52;;;;;;;;;;;;;;;10.24;77.60;99316.53;3162371;28;20052;-71
2023/03/22 01:29:25;;;;;;;37.08;18.45;;;;;;;9.62;77.75;99229.53;3164923;28;19923;-72
2023/03/22 01:31:01;;;;;;;38.88;19.42;;;;;;;10.19;77.58;99313.31;3165152;28;20404;-72
2023/03/22 01:32:32;;;;;;;38.92;18.92;;;;;;;10.14;77.72;99310.09;3164565;28;20059;-71
2023/03/22 01:34:04;;;;;;;39.70;19.98;;;;;;;10.02;77.83;99301.16;3165132;28;20265;-71
2023/03/22 01:35:37;;;;;;;40.63;20.13;;;;;;;10.14;77.54;99321.34;3165169;28;20089;-71
2023/03/22 01:37:08;;;;;;;35.60;19.15;;;;;;;9.96;77.53;99293.66;3160938;28;20055;-70
2023/03/22 01:38:40;;;;;;;36.63;19.55;;;;;;;10.05;77.61;99306.19;3164055;28;20075;-71
2023/03/22 01:40:13;;;;;;;39.90;19.63;;;;;;;10.10;77.72;99314.63;3164257;28;20058;-71
2023/03/22 01:41:46;;;;;;;;;;;;;;;10.06;77.60;99323.50;3165126;28;20052;-70
2023/03/22 01:43:18;;;;;;;41.45;18.05;;;;;;;10.02;77.64;99312.41;3165053;28;20326;-70
2023/03/22 01:45:38;;;;;;;45.55;19.00;;;;;;;10.03;77.75;99314.09;3164971;28;20047;-70
2023/03/22 01:47:11;;;;;;;46.58;20.50;;;;;;;10.01;78.12;99318.53;3153483;28;20056;-70
2023/03/22 01:48:45;;;;;;;38.05;19.63;;;;;;;10.00;78.03;99316.84;3164840;28;20052;-70
2023/03/22 01:50:18;;;;;;;40.72;19.75;;;;;;;10.00;78.10;99321.22;3164697;28;20060;-70
2023/03/22 01:51:52;;;;;;;46.47;20.98;;;;;;;9.93;78.11;99309.44;3164277;28;20280;-70
2023/03/22 01:53:26;;;;;;;41.53;21.92;;;;;;;9.98;78.09;99316.09;3165033;28;20051;-70
2023/03/22 01:54:57;;;;;;;40.80;20.40;;;;;;;9.98;78.47;99321.28;3164688;28;20094;-69
2023/03/22 01:56:32;;;;;;;45.40;21.30;;;;;;;9.88;78.58;99306.19;3164832;28;20512;-70
2023/03/22 01:58:05;;;;;;;49.47;20.38;;;;;;;9.97;78.91;99319.63;3164867;28;20055;-70
2023/03/22 01:59:38;;;;;;;52.53;21.52;;;;;;;9.95;78.84;99318.00;3164756;28;20214;-69
2023/03/22 02:01:10;;;;;;;47.90;21.00;;;;;;;9.94;79.15;99318.94;3164282;28;20074;-69
2023/03/22 02:02:43;;;;;;;47.65;22.02;;;;;;;9.93;78.96;99319.81;3164599;28;20051;-69
2023/03/22 02:04:19;;;;;;;43.40;20.98;;;;;;;9.84;79.46;99307.28;3164688;28;20101;-70
2023/03/22 02:05:51;;;;;;;47.10;21.00;;;;;;;9.85;79.45;99316.75;3163653;28;20129;-69
2023/03/22 02:07:26;;;;;;;43.40;21.17;;;;;;;9.76;79.20;99308.53;3160515;28;20052;-71
2023/03/22 02:08:58;;;;;;;45.85;21.23;;;;;;;9.82;79.34;99328.19;3164596;28;20108;-71
2023/03/22 02:10:29;;;;;;;47.33;21.73;;;;;;;9.77;79.40;99323.19;3164372;28;20055;-70
2023/03/22 02:12:14;;;;;;;43.55;22.40;;;;;;;9.79;79.63;99330.94;3164838;28;20058;-70
2023/03/22 02:14:09;;;;;;;44.45;20.67;;;;;;;9.78;79.56;99327.47;3164559;28;20047;-70
2023/03/22 02:15:45;;;;;;;46.67;22.15;;;;;;;9.69;79.77;99314.94;3164330;28;20055;-70
2023/03/22 02:17:27;;;;;;;41.85;20.33;;;;;;;9.75;79.86;99324.19;3159386;28;20052;-70
2023/03/22 02:19:19;;;;;;;44.72;21.48;;;;;;;9.78;80.00;99335.28;3163043;28;20051;-69
2023/03/22 02:21:24;;;;;;;39.63;20.00;;;;;;;9.77;79.77;99332.75;3160768;28;20048;-69
2023/03/22 02:23:20;;;;;;;39.53;19.52;;;;;;;9.76;79.73;99338.84;3155226;28;20066;-70
2023/03/22 02:25:26;;;;;;;45.13;19.70;;;;;;;9.75;79.91;99339.78;3164363;28;20058;-69
2023/03/22 02:27:25;;;;;;;45.35;19.98;;;;;;;9.67;80.06;99336.72;3161868;28;20261;-70
2023/03/22 02:29:03;;;;;;;41.45;19.88;;;;;;;9.68;80.22;99335.81;3164594;28;20131;-69
2023/03/22 02:30:55;;;;;;;37.92;19.35;;;;;;;9.64;80.08;99334.25;3164224;28;20074;-69
2023/03/22 02:33:04;;;;;;;44.42;19.42;;;;;;;9.67;80.32;99334.13;3164367;28;20059;-69
2023/03/22 02:35:03;;;;;;;42.33;20.25;;;;;;;9.59;80.33;99334.50;3157195;28;20047;-70
2023/03/22 02:37:02;;;;;;;39.70;21.10;;;;;;;9.57;80.67;99341.53;3161542;28;20514;-70
2023/03/22 02:38:58;;;;;;;51.92;22.63;;;;;;;9.48;80.53;99336.78;3141939;28;20080;-71
2023/03/22 02:40:35;;;;;;;46.53;22.77;;;;;;;9.50;81.12;99338.38;3153379;28;20062;-71
2023/03/22 02:42:23;;;;;;;45.80;22.95;;;;;;;9.51;80.91;99341.81;3164061;28;20112;-71
2023/03/22 02:44:06;;;;;;;42.40;23.45;;;;;;;9.02;81.33;99261.88;3164107;28;20055;-71
2023/03/22 02:45:47;;;;;;;46.35;23.42;;;;;;;9.42;81.40;99332.72;3163853;28;20052;-71
2023/03/22 02:47:25;;;;;;;51.78;24.08;;;;;;;9.31;81.72;99325.41;3164328;28;22027;-71
2023/03/22 02:49:05;;;;;;;42.88;23.75;;;;;;;9.31;81.75;99338.41;3164319;28;20128;-71
2023/03/22 02:50:41;;;;;;;46.65;22.80;;;;;;;9.27;82.03;99333.44;3163777;28;20048;-72
2023/03/22 02:52:19;;;;;;;66.93;31.23;;;;;;;9.31;82.25;99346.19;3163399;28;20086;-70
2023/03/22 02:53:57;;;;;;;57.67;27.90;;;;;;;9.30;82.10;99346.28;3163627;28;20138;-70
2023/03/22 02:55:33;;;;;;;59.25;28.52;;;;;;;8.94;82.37;99289.13;3167176;28;20135;-70
2023/03/22 02:57:11;;;;;;;55.42;27.40;;;;;;;9.25;82.31;99343.91;3169369;28;20044;-70
2023/03/22 02:58:45;;;;;;;60.38;29.25;;;;;;;9.25;82.16;99346.50;3169258;28;20044;-70
2023/03/22 03:00:19;;;;;;;69.40;30.10;;;;;;;9.23;82.58;99337.09;3168677;28;20084;-69
2023/03/22 03:01:54;;;;;;;65.60;31.70;;;;;;;9.22;82.61;99325.00;3169046;28;20142;-71
2023/03/22 03:03:28;;;;;;;77.53;33.15;;;;;;;9.34;82.50;99350.41;3169295;28;20105;-71
2023/03/22 03:05:01;;;;;;;65.13;32.83;;;;;;;8.82;82.56;99264.56;3165317;28;20052;-70
2023/03/22 03:06:37;;;;;;;67.65;31.88;;;;;;;8.32;82.39;99182.91;3169251;28;20482;-71
2023/03/22 03:08:13;;;;;;;71.13;33.08;;;;;;;9.43;82.57;99349.13;3168622;28;20124;-71
2023/03/22 03:09:47;;;;;;;64.63;31.27;;;;;;;9.46;82.44;99355.03;3169029;28;20044;-70
2023/03/22 03:11:20;;;;;;;69.57;32.85;;;;;;;9.45;82.66;99347.31;3169460;28;20048;-70
2023/03/22 03:12:52;;;;;;;67.35;30.90;;;;;;;9.52;82.62;99348.69;3169343;28;20760;-71
2023/03/22 03:14:26;;;;;;;63.50;31.92;;;;;;;9.53;82.21;99353.84;3156573;28;20052;-71
2023/03/22 03:16:01;;;;;;;64.20;30.65;;;;;;;9.55;82.36;99356.34;3167915;28;20507;-71
2023/03/22 03:17:46;;;;;;;63.22;28.17;;;;;;;8.99;82.46;99259.44;3161789;28;20056;-71
2023/03/22 03:19:25;;;;;;;50.40;25.95;;;;;;;9.53;82.38;99350.41;3161013;28;20569;-71
2023/03/22 03:21:04;;;;;;;49.92;24.20;;;;;;;9.62;82.48;99362.13;3157015;28;20056;-70
2023/03/22 03:22:46;;;;;;;49.65;23.20;;;;;;;9.64;82.22;99366.28;3165529;28;20130;-70
2023/03/22 03:24:27;;;;;;;53.90;24.48;;;;;;;9.62;82.51;99365.56;3157309;28;20055;-72
2023/03/22 03:26:05;;;;;;;43.60;21.90;;;;;;;9.62;82.27;99360.34;3169050;28;20152;-70
2023/03/22 03:27:48;;;;;;;41.72;22.10;;;;;;;9.60;82.62;99362.19;3166087;28;20071;-71
2023/03/22 03:29:29;;;;;;;41.90;21.35;;;;;;;9.55;82.93;99361.53;3158935;28;20193;-70
2023/03/22 03:31:10;;;;;;;44.53;20.98;;;;;;;9.50;82.79;99368.75;3168923;28;20136;-70
2023/03/22 03:32:47;;;;;;;47.33;21.25;;;;;;;9.31;83.37;99345.38;3168967;28;20058;-70
2023/03/22 03:34:24;;;;;;;43.17;21.77;;;;;;;9.43;83.49;99369.94;3168691;28;20065;-70
2023/03/22 03:36:00;;;;;;;42.97;20.98;;;;;;;9.39;83.34;99369.25;3169035;28;20071;-69
2023/03/22 03:37:37;;;;;;;42.53;21.67;;;;;;;9.32;83.20;99350.50;3168778;28;20044;-70
2023/03/22 03:39:14;;;;;;;44.13;22.05;;;;;;;9.48;83.40;99368.81;3168770;28;21504;-70
2023/03/22 03:40:50;;;;;;;42.63;21.50;;;;;;;9.50;83.09;99373.94;3169083;28;20203;-70
2023/03/22 03:42:27;;;;;;;44.20;19.67;;;;;;;9.49;83.26;99375.66;3167916;28;20101;-70
2023/03/22 03:44:00;;;;;;;43.25;21.10;;;;;;;9.43;82.87;99365.56;3163936;28;20060;-70
2023/03/22 03:45:34;;;;;;;40.70;21.13;;;;;;;9.47;82.60;99371.50;3163633;28;20520;-70
2023/03/22 03:47:08;;;;;;;40.45;20.35;;;;;;;9.47;82.59;99374.94;3164031;28;20054;-70
2023/03/22 03:48:43;;;;;;;41.13;21.23;;;;;;;9.25;82.69;99356.06;3163694;28;20104;-70
2023/03/22 03:50:16;;;;;;;38.55;19.90;;;;;;;9.47;82.74;99371.50;3163920;28;20134;-70
2023/03/22 03:51:52;;;;;;;44.15;20.65;;;;;;;9.45;82.74;99375.91;3163684;28;20215;-71
2023/03/22 03:53:24;;;;;;;42.65;21.17;;;;;;;9.42;82.37;99369.09;3151055;28;20670;-70
2023/03/22 03:54:56;;;;;;;44.72;20.55;;;;;;;9.37;82.51;99360.66;3163425;28;20048;-70
2023/03/22 03:56:28;;;;;;;37.65;20.05;;;;;;;9.34;82.41;99359.06;3163630;28;20047;-70
2023/03/22 03:58:01;;;;;;;43.08;21.05;;;;;;;9.39;82.38;99373.59;3163951;28;20043;-69
2023/03/22 03:59:33;;;;;;;40.30;19.92;;;;;;;9.36;82.71;99373.75;3163556;28;20058;-69
2023/03/22 04:01:05;;;;;;;40.90;21.50;;;;;;;9.30;82.63;99364.47;3163890;28;20051;-69
2023/03/22 04:02:36;;;;;;;41.05;20.52;;;;;;;8.89;82.51;99300.53;3164149;28;20051;-69
2023/03/22 04:04:09;;;;;;;38.70;20.83;;;;;;;9.35;82.92;99372.91;3164776;28;20392;-69
2023/03/22 04:05:40;;;;;;;37.67;20.13;;;;;;;9.36;83.19;99373.75;3166202;28;20874;-69
2023/03/22 04:07:12;;;;;;;40.63;20.98;;;;;;;9.37;83.23;99375.41;3165320;28;20047;-69
2023/03/22 04:08:44;;;;;;;43.17;22.00;;;;;;;9.37;82.97;99378.84;3166012;28;20076;-70
2023/03/22 04:10:16;;;;;;;39.53;19.92;;;;;;;9.36;83.14;99379.78;3165885;28;20044;-70
2023/03/22 04:11:48;;;;;;;45.00;22.67;;;;;;;9.38;83.43;99382.31;3166060;28;20120;-70
2023/03/22 04:13:23;;;;;;;40.35;20.40;;;;;;;9.38;83.42;99385.75;3165746;28;20213;-70
2023/03/22 04:14:55;;;;;;;44.95;22.05;;;;;;;9.37;83.38;99381.44;3165786;28;20051;-70
2023/03/22 04:16:27;;;;;;;39.35;20.17;;;;;;;9.19;83.23;99362.38;3166112;28;20138;-70
2023/03/22 04:17:59;;;;;;;40.90;21.35;;;;;;;9.33;83.51;99391.16;3165871;28;20051;-70
2023/03/22 04:19:31;;;;;;;46.58;21.73;;;;;;;9.32;83.40;99388.66;3165760;28;20058;-70
2023/03/22 04:21:04;;;;;;;44.58;21.17;;;;;;;9.22;83.45;99372.63;3165955;28;20063;-71
2023/03/22 04:22:37;;;;;;;41.15;21.95;;;;;;;9.31;83.17;99390.38;3165580;27;20134;-71
2023/03/22 04:24:10;;;;;;;44.15;20.60;;;;;;;9.32;83.32;99392.09;3165699;28;20074;-70
2023/03/22 04:25:42;;;;;;;38.47;20.52;;;;;;;9.32;83.64;99394.69;3166001;28;20124;-70
2023/03/22 04:27:14;;;;;;;38.20;19.90;;;;;;;9.32;83.53;99399.03;3165866;28;20051;-71
2023/03/22 04:28:47;;;;;;;40.60;20.73;;;;;;;9.29;83.61;99387.03;3165652;28;20052;-70
2023/03/22 04:30:20;;;;;;;;;;;;;;;9.24;83.51;99396.78;3165607;28;20520;-70
2023/03/22 04:31:53;;;;;;;37.10;19.35;;;;;;;9.23;83.86;99402.91;3165961;28;19927;-70
2023/03/22 04:33:25;;;;;;;44.45;21.33;;;;;;;9.24;83.95;99401.16;3165452;28;20143;-70
2023/03/22 04:34:56;;;;;;;40.63;20.60;;;;;;;9.24;84.24;99399.38;3165626;28;20777;-71
2023/03/22 04:36:30;;;;;;;40.65;21.05;;;;;;;9.24;84.29;99401.97;3164859;28;20047;-71
2023/03/22 04:38:01;;;;;;;38.72;21.23;;;;;;;9.24;84.68;99401.16;3159902;28;20157;-70
2023/03/22 04:39:33;;;;;;;42.28;21.67;;;;;;;9.26;84.47;99405.34;3165776;28;20124;-70
2023/03/22 04:41:05;;;;;;;42.88;21.98;;;;;;;9.29;84.38;99404.38;3165822;27;20108;-70
2023/03/22 04:42:38;;;;;;;42.97;21.70;;;;;;;9.30;84.78;99401.69;3164129;28;20043;-70
2023/03/22 04:44:11;;;;;;;38.92;20.27;;;;;;;9.34;84.89;99405.81;3165265;28;20104;-70
2023/03/22 04:45:42;;;;;;;39.92;21.55;;;;;;;9.36;84.96;99404.94;3165634;28;20069;-71
2023/03/22 04:47:14;;;;;;;46.25;21.42;;;;;;;9.37;84.63;99410.03;3165761;28;20120;-71
2023/03/22 04:48:46;;;;;;;44.97;22.13;;;;;;;9.39;85.04;99407.38;3165812;28;20563;-71
2023/03/22 04:50:17;;;;;;;44.47;22.35;;;;;;;9.40;84.91;99409.91;3165591;27;20043;-70
2023/03/22 04:51:49;;;;;;;45.78;23.90;;;;;;;9.42;84.95;99417.63;3165125;28;20063;-70
2023/03/22 04:53:26;;;;;;;44.38;23.90;;;;;;;9.36;85.09;99400.56;3164723;28;20051;-74
2023/03/22 04:54:58;;;;;;;47.97;23.10;;;;;;;9.44;84.71;99411.47;3165341;28;20056;-73
2023/03/22 04:56:29;;;;;;;39.88;22.17;;;;;;;9.46;85.04;99413.97;3152868;28;20056;-70
2023/03/22 04:58:00;;;;;;;41.33;22.70;;;;;;;9.48;84.77;99414.75;3164810;28;20052;-70
2023/03/22 04:59:34;;;;;;;43.15;22.65;;;;;;;9.50;84.88;99412.94;3165896;28;20051;-72
2023/03/22 05:01:07;;;;;;;38.65;22.58;;;;;;;9.01;84.75;99325.09;3165291;28;20072;-70
2023/03/22 05:02:39;;;;;;;;;;;;;;;9.49;84.80;99414.66;3165265;27;20451;-70
2023/03/22 05:04:11;;;;;;;43.92;21.00;;;;;;;9.50;84.86;99415.53;3165180;28;20496;-69
2023/03/22 05:05:51;;;;;;;41.72;21.80;;;;;;;9.53;84.56;99416.22;3165592;28;20043;-70
2023/03/22 05:07:23;;;;;;;44.60;22.75;;;;;;;9.54;84.52;99417.91;3165202;28;20054;-73
2023/03/22 05:08:55;;;;;;;41.03;21.65;;;;;;;9.49;84.70;99403.44;3164492;28;20681;-75
2023/03/22 05:10:27;;;;;;;40.55;21.88;;;;;;;9.57;84.60;99417.75;3165301;27;20120;-72
2023/03/22 05:12:00;;;;;;;46.53;23.10;;;;;;;9.59;84.65;99422.91;3165184;27;20055;-71
2023/03/22 05:13:32;;;;;;;41.17;21.88;;;;;;;9.61;84.39;99422.81;3164553;28;20535;-68
2023/03/22 05:15:06;;;;;;;42.58;21.83;;;;;;;9.65;84.68;99419.16;3164706;28;20058;-72
2023/03/22 05:16:40;;;;;;;41.75;23.77;;;;;;;9.67;84.49;99427.72;3164283;28;20547;-72
2023/03/22 05:18:13;;;;;;;;;;;;;;;9.65;84.59;99427.81;3159347;28;20085;-65
2023/03/22 05:19:45;;;;;;;99.85;47.97;;;;;;;9.65;84.64;99433.00;3165369;28;19931;-67
2023/03/22 05:21:20;;;;;;;133.13;69.43;;;;;;;9.25;84.66;99356.88;3164836;27;20070;-71
2023/03/22 05:22:55;;;;;;;50.40;28.20;;;;;;;9.63;84.72;99414.03;3164600;28;20572;-73
2023/03/22 05:24:28;;;;;;;45.13;23.50;;;;;;;9.59;84.38;99412.50;3165041;27;20051;-79
2023/03/22 05:26:02;;;;;;;42.67;23.42;;;;;;;9.59;84.61;99414.25;3163850;28;20047;-71
2023/03/22 05:27:37;;;;;;;44.25;23.48;;;;;;;9.60;84.26;99418.53;3164965;28;20489;-69
2023/03/22 05:29:10;;;;;;;47.08;23.48;;;;;;;9.77;84.44;99447.19;3164172;28;20105;-69
2023/03/22 05:30:44;;;;;;;43.25;25.15;;;;;;;9.65;84.64;99434.75;3164179;28;20139;-69
2023/03/22 05:32:17;;;;;;;41.08;23.75;;;;;;;9.82;84.67;99452.16;3165030;28;20081;-65
2023/03/22 05:33:50;;;;;;;44.42;24.92;;;;;;;9.83;84.56;99456.44;3165034;28;20147;-67
2023/03/22 05:35:22;;;;;;;44.90;24.42;;;;;;;9.78;84.69;99452.28;3164667;28;20142;-66
2023/03/22 05:36:54;;;;;;;46.00;25.42;;;;;;;9.85;84.82;99465.88;3161705;28;20090;-65
2023/03/22 05:38:26;;;;;;;49.15;25.05;;;;;;;9.82;84.48;99455.63;3163771;28;20649;-68
2023/03/22 05:39:58;;;;;;;44.42;24.60;;;;;;;9.87;84.76;99469.22;3160019;28;20086;-68
2023/03/22 05:41:32;;;;;;;47.72;24.33;;;;;;;9.88;84.46;99459.66;3164494;28;20049;-69
2023/03/22 05:43:04;;;;;;;41.00;23.90;;;;;;;9.88;84.49;99462.25;3163418;28;20055;-70
2023/03/22 05:44:36;;;;;;;49.17;25.30;;;;;;;9.73;84.67;99436.09;3164673;28;20052;-69
2023/03/22 05:46:11;;;;;;;43.40;24.50;;;;;;;9.86;84.27;99457.13;3164382;28;20120;-67
2023/03/22 05:47:43;;;;;;;45.60;24.88;;;;;;;9.92;84.67;99466.41;3164300;28;20047;-68
2023/03/22 05:49:15;;;;;;;51.20;26.13;;;;;;;9.90;84.72;99466.47;3164050;28;20130;-67
2023/03/22 05:50:47;;;;;;;44.40;24.55;;;;;;;9.93;84.85;99468.09;3162819;28;20051;-68
2023/03/22 05:52:19;;;;;;;46.72;25.20;;;;;;;9.95;84.82;99474.06;3162641;28;20318;-67
2023/03/22 05:53:53;;;;;;;50.40;26.02;;;;;;;9.47;84.72;99403.53;3163505;28;20560;-67
2023/03/22 05:55:26;;;;;;;;;;;;;;;9.90;84.68;99473.44;3164297;28;20052;-67
2023/03/22 05:56:57;;;;;;;51.53;25.70;;;;;;;9.90;85.34;99479.47;3164407;28;19923;-67
2023/03/22 05:58:31;;;;;;;52.15;27.17;;;;;;;9.94;84.99;99488.84;3164527;28;20088;-67
2023/03/22 06:00:10;;;;;;;52.13;26.08;;;;;;;9.78;85.02;99459.25;3164381;28;20534;-68
2023/03/22 06:01:43;;;;;;;51.40;26.08;;;;;;;9.96;84.95;99480.94;3151739;28;20060;-68
2023/03/22 06:03:15;;;;;;;54.63;27.70;;;;;;;9.99;85.39;99492.03;3163752;28;20063;-68
2023/03/22 06:04:48;;;;;;;53.95;28.02;;;;;;;9.96;85.35;99484.38;3163324;28;20047;-68
2023/03/22 06:06:20;;;;;;;52.67;27.48;;;;;;;9.94;85.68;99477.59;3164033;28;20058;-68
2023/03/22 06:07:52;;;;;;;52.67;26.92;;;;;;;10.01;85.36;99492.81;3164525;28;20060;-68
2023/03/22 06:09:24;;;;;;;49.72;26.80;;;;;;;10.02;85.76;99489.28;3164332;28;20537;-68
2023/03/22 06:10:56;;;;;;;52.10;27.00;;;;;;;9.97;85.62;99493.91;3164706;28;20573;-68
2023/03/22 06:12:28;;;;;;;49.80;25.98;;;;;;;10.01;85.42;99491.97;3164473;28;20047;-68
2023/03/22 06:14:00;;;;;;;52.20;26.80;;;;;;;10.05;85.50;99495.28;3164343;28;20043;-67
2023/03/22 06:15:32;;;;;;;46.78;25.58;;;;;;;10.07;85.44;99502.09;3164171;28;20554;-68
2023/03/22 06:17:05;;;;;;;51.78;27.70;;;;;;;10.10;85.66;99507.16;3164455;28;20235;-68
2023/03/22 06:18:37;;;;;;;54.72;29.40;;;;;;;10.10;85.50;99504.56;3164287;28;20051;-68
2023/03/22 06:20:12;;;;;;;46.28;26.65;;;;;;;10.03;85.80;99495.38;3164238;28;20515;-68
2023/03/22 06:21:44;;;;;;;51.35;26.98;;;;;;;10.06;86.05;99510.81;3164257;28;20047;-68
2023/03/22 06:23:16;;;;;;;57.50;29.15;;;;;;;10.05;85.84;99506.53;3164433;28;20058;-68
2023/03/22 06:24:48;;;;;;;51.78;27.15;;;;;;;10.03;86.01;99510.97;3164373;28;20098;-69
2023/03/22 06:26:20;;;;;;;51.83;28.37;;;;;;;9.97;86.03;99503.47;3164545;28;20047;-68
2023/03/22 06:27:52;;;;;;;48.42;26.63;;;;;;;10.01;86.33;99511.03;3163730;28;20043;-68
2023/03/22 06:29:24;;;;;;;52.50;28.90;;;;;;;10.02;86.19;99517.91;3164179;28;20054;-68
2023/03/22 06:30:56;;;;;;;51.85;27.52;;;;;;;10.02;86.37;99520.50;3164458;28;20580;-68
2023/03/22 06:32:30;;;;;;;55.38;28.85;;;;;;;10.06;86.30;99520.38;3151827;28;20056;-69
2023/03/22 06:34:02;;;;;;;57.65;28.88;;;;;;;10.07;86.33;99528.13;3163408;28;20146;-68
2023/03/22 06:35:33;;;;;;;51.28;28.30;;;;;;;10.06;86.08;99521.22;3154711;28;20117;-68
2023/03/22 06:37:07;;;;;;;58.45;29.40;;;;;;;10.02;86.38;99511.88;3164421;28;20130;-69
2023/03/22 06:38:39;;;;;;;55.22;28.40;;;;;;;10.16;86.07;99542.44;3164159;28;20148;-68
2023/03/22 06:40:11;;;;;;;53.53;28.40;;;;;;;10.16;85.97;99527.66;3164162;28;20174;-68
2023/03/22 06:41:43;;;;;;;55.60;28.77;;;;;;;10.18;85.83;99538.03;3164169;28;20486;-69
2023/03/22 06:43:15;;;;;;;55.45;29.25;;;;;;;10.03;86.01;99518.78;3161898;28;20055;-68
2023/03/22 06:44:47;;;;;;;51.08;27.90;;;;;;;10.17;85.91;99547.56;3161299;28;20440;-69
2023/03/22 06:46:19;;;;;;;54.67;27.58;;;;;;;9.76;85.41;99477.56;3163895;28;20100;-68
2023/03/22 06:47:52;;;;;;;58.42;29.10;;;;;;;10.20;85.55;99551.78;3164171;28;20048;-68
2023/03/22 06:49:25;;;;;;;;;;;;;;;10.15;85.48;99553.78;3164766;28;20051;-68
2023/03/22 06:50:58;;;;;;;52.55;26.52;;;;;;;10.15;85.54;99556.38;3163808;28;20360;-67
2023/03/22 06:52:30;;;;;;;57.70;28.25;;;;;;;10.15;85.45;99548.56;3163970;28;20055;-68
2023/03/22 06:54:02;;;;;;;56.42;29.95;;;;;;;10.17;85.64;99544.97;3164156;28;20995;-68
2023/03/22 06:55:35;;;;;;;58.38;30.58;;;;;;;10.18;85.73;99541.47;3164272;28;20097;-68
2023/03/22 06:57:06;;;;;;;57.38;28.63;;;;;;;10.20;85.43;99544.84;3164055;28;20054;-67
2023/03/22 06:58:38;;;;;;;58.03;28.63;;;;;;;10.17;85.53;99534.56;3164077;28;20058;-68
2023/03/22 07:00:11;;;;;;;52.47;28.23;;;;;;;9.99;85.60;99499.84;3164003;28;20047;-67
2023/03/22 07:01:43;;;;;;;;;;;;;;;10.18;85.66;99545.81;3164538;28;20120;-68
2023/03/22 07:03:16;;;;;;;49.80;27.33;;;;;;;10.17;85.77;99542.34;3164545;28;19923;-69
2023/03/22 07:04:48;;;;;;;54.92;28.95;;;;;;;10.18;85.89;99538.84;3168474;28;20051;-68
2023/03/22 07:06:20;;;;;;;58.47;28.80;;;;;;;10.18;86.25;99546.66;3169455;28;20581;-68
2023/03/22 07:07:52;;;;;;;49.40;27.02;;;;;;;10.07;86.17;99528.13;3168150;28;20608;-68
2023/03/22 07:09:25;;;;;;;60.65;29.98;;;;;;;10.19;86.57;99544.91;3168894;28;20052;-69
2023/03/22 07:10:57;;;;;;;55.40;27.50;;;;;;;10.18;86.49;99540.63;3169417;28;20046;-71
2023/03/22 07:12:29;;;;;;;56.95;27.98;;;;;;;10.16;86.86;99543.28;3168724;28;20496;-74
2023/03/22 07:14:01;;;;;;;53.75;28.17;;;;;;;10.15;86.65;99540.78;3168735;28;20062;-71
2023/03/22 07:15:33;;;;;;;52.35;27.30;;;;;;;10.13;87.13;99543.44;3169099;28;20051;-71
2023/03/22 07:17:04;;;;;;;55.63;28.33;;;;;;;10.09;87.69;99535.84;3168961;28;20117;-70
2023/03/22 07:18:37;;;;;;;104.35;54.45;;;;;;;10.10;87.77;99525.38;3169266;28;20048;-68
2023/03/22 07:20:10;;;;;;;76.55;38.90;;;;;;;9.91;88.11;99486.38;3168852;28;20104;-68